MMTC/TRC METAR and TAF weather

Enter ICAO airport designator
Station Type Date Time Source
MMTC METAR 2022/06/28 23:50 UTC NOAA

MMTC 282350Z 31003KT 10SM BKN030CB BKN100 BKN250 33/10 A3007 RMK SLP064 57020 903 8/363 ISOL SC


Station Type Date Time Source
MMTC Decoded METAR 2022/06/28 23:50 UTC NOAA

Torreon, Coah., Mexico (MMTC) 25-32N 103-27W 1150M
Jun 28, 2022 - 07:50 PM EDT / 2022.06.28 2350 UTC
Wind: from the NW (310 degrees) at 3 MPH (3 KT):0
Visibility: 10 mile(s):0
Sky conditions: mostly cloudy
Weather: Cumulonimbus clouds observed
Temperature: 91 F (33 C)
Dew Point: 50 F (10 C)
Relative Humidity: 24%
Pressure (altimeter): 30.07 in. Hg (1018 hPa)
Pressure tendency: 0.06 inches (2.0 hPa) lower than three hours ago
ob: MMTC 282350Z 31003KT 10SM BKN030CB BKN100 BKN250 33/10 A3007 RMK SLP064 57020 903 8/363 ISOL SC
cycle: 0

Station Type Date Time Source
MMTC TAF 2022/06/28 18:16 UTC NOAA

TAF MMTC 281609Z 2818/2918 06012KT P6SM BKN030 BKN080
BECMG 2821/2822 BKN030CB
TEMPO 2822/2902 06010G20KT 4SM BLDU
FM290300 07010KT P6SM SCT030 SCT080
BECMG 2906/2907 SKC
FM291600 07010KT P6SM SCT040 BKN080

Example: see airport list